sensor_id;sensor_type;location;lat;lon;timestamp;P1;durP1;ratioP1;P2;durP2;ratioP2
36833;SDS011;48003;52.084;5.224;2022-08-21T00:01:27;11.1;;;6.9;;
36833;SDS011;48003;52.084;5.224;2022-08-21T00:03:06;12.7;;;7.1;;
36833;SDS011;48003;52.084;5.224;2022-08-21T00:04:46;12.4;;;6.9;;
36833;SDS011;48003;52.084;5.224;2022-08-21T00:06:23;10.3;;;6.6;;
36833;SDS011;48003;52.084;5.224;2022-08-21T00:09:39;9.21;;;6.4;;
36833;SDS011;48003;52.084;5.224;2022-08-21T00:11:16;9.5;;;6.0;;
36833;SDS011;48003;52.084;5.224;2022-08-21T00:12:54;9.0;;;6.2;;
36833;SDS011;48003;52.084;5.224;2022-08-21T00:14:31;13.0;;;6.8;;
36833;SDS011;48003;52.084;5.224;2022-08-21T00:17:46;9.1;;;6.5;;
36833;SDS011;48003;52.084;5.224;2022-08-21T00:19:24;10.8;;;7.0;;
36833;SDS011;48003;52.084;5.224;2022-08-21T00:21:02;8.81;;;6.5;;
36833;SDS011;48003;52.084;5.224;2022-08-21T00:24:17;11.0;;;6.5;;
36833;SDS011;48003;52.084;5.224;2022-08-21T00:25:54;9.81;;;6.5;;
36833;SDS011;48003;52.084;5.224;2022-08-21T00:27:31;10.3;;;6.5;;
36833;SDS011;48003;52.084;5.224;2022-08-21T00:30:44;10.21;;;6.4;;
36833;SDS011;48003;52.084;5.224;2022-08-21T00:32:21;9.31;;;6.0;;
36833;SDS011;48003;52.084;5.224;2022-08-21T00:34:00;11.1;;;6.7;;
36833;SDS011;48003;52.084;5.224;2022-08-21T00:35:38;11.1;;;6.9;;
36833;SDS011;48003;52.084;5.224;2022-08-21T00:38:54;11.5;;;6.9;;
36833;SDS011;48003;52.084;5.224;2022-08-21T00:40:33;11.5;;;6.8;;
36833;SDS011;48003;52.084;5.224;2022-08-21T00:42:15;9.81;;;6.8;;
36833;SDS011;48003;52.084;5.224;2022-08-21T00:43:53;10.0;;;6.9;;
36833;SDS011;48003;52.084;5.224;2022-08-21T00:47:09;10.8;;;7.5;;
36833;SDS011;48003;52.084;5.224;2022-08-21T00:48:46;10.3;;;7.1;;
36833;SDS011;48003;52.084;5.224;2022-08-21T00:50:24;14.5;;;7.3;;
36833;SDS011;48003;52.084;5.224;2022-08-21T00:53:46;14.5;;;7.3;;
36833;SDS011;48003;52.084;5.224;2022-08-21T00:55:23;14.5;;;7.3;;
36833;SDS011;48003;52.084;5.224;2022-08-21T00:57:04;12.5;;;6.3;;
36833;SDS011;48003;52.084;5.224;2022-08-21T00:58:46;11.2;;;8.1;;
36833;SDS011;48003;52.084;5.224;2022-08-21T01:02:06;12.5;;;7.7;;
36833;SDS011;48003;52.084;5.224;2022-08-21T01:05:23;12.0;;;7.6;;
36833;SDS011;48003;52.084;5.224;2022-08-21T01:07:00;12.2;;;7.8;;
36833;SDS011;48003;52.084;5.224;2022-08-21T01:10:15;12.8;;;7.6;;
36833;SDS011;48003;52.084;5.224;2022-08-21T01:11:52;12.5;;;7.9;;
36833;SDS011;48003;52.084;5.224;2022-08-21T01:13:31;10.4;;;7.8;;
36833;SDS011;48003;52.084;5.224;2022-08-21T01:16:51;12.1;;;7.9;;
36833;SDS011;48003;52.084;5.224;2022-08-21T01:18:30;11.7;;;7.7;;
36833;SDS011;48003;52.084;5.224;2022-08-21T01:20:08;14.8;;;8.2;;
36833;SDS011;48003;52.084;5.224;2022-08-21T01:21:47;10.3;;;7.9;;
36833;SDS011;48003;52.084;5.224;2022-08-21T01:25:02;11.5;;;8.1;;
36833;SDS011;48003;52.084;5.224;2022-08-21T01:26:41;10.7;;;8.0;;
36833;SDS011;48003;52.084;5.224;2022-08-21T01:28:19;12.1;;;7.9;;
36833;SDS011;48003;52.084;5.224;2022-08-21T01:30:03;10.7;;;7.7;;
36833;SDS011;48003;52.084;5.224;2022-08-21T01:33:24;13.1;;;7.4;;
36833;SDS011;48003;52.084;5.224;2022-08-21T01:35:01;10.5;;;7.7;;
36833;SDS011;48003;52.084;5.224;2022-08-21T01:36:40;11.9;;;7.3;;
36833;SDS011;48003;52.084;5.224;2022-08-21T01:38:16;12.7;;;7.5;;
36833;SDS011;48003;52.084;5.224;2022-08-21T01:41:29;11.7;;;7.3;;
36833;SDS011;48003;52.084;5.224;2022-08-21T01:43:06;10.5;;;6.8;;
36833;SDS011;48003;52.084;5.224;2022-08-21T01:44:43;11.1;;;7.5;;
36833;SDS011;48003;52.084;5.224;2022-08-21T01:47:56;13.5;;;8.0;;
36833;SDS011;48003;52.084;5.224;2022-08-21T01:49:32;11.8;;;7.5;;
36833;SDS011;48003;52.084;5.224;2022-08-21T01:51:10;13.3;;;7.8;;
36833;SDS011;48003;52.084;5.224;2022-08-21T01:54:25;10.8;;;8.2;;
36833;SDS011;48003;52.084;5.224;2022-08-21T01:56:03;12.8;;;8.4;;
36833;SDS011;48003;52.084;5.224;2022-08-21T01:57:42;10.9;;;8.0;;
36833;SDS011;48003;52.084;5.224;2022-08-21T01:59:19;13.0;;;8.71;;
36833;SDS011;48003;52.084;5.224;2022-08-21T02:02:35;15.5;;;8.5;;
36833;SDS011;48003;52.084;5.224;2022-08-21T02:04:11;12.7;;;8.71;;
36833;SDS011;48003;52.084;5.224;2022-08-21T02:05:48;12.6;;;8.6;;
36833;SDS011;48003;52.084;5.224;2022-08-21T02:09:02;12.4;;;8.71;;
36833;SDS011;48003;52.084;5.224;2022-08-21T02:10:40;13.1;;;8.71;;
36833;SDS011;48003;52.084;5.224;2022-08-21T02:12:17;12.7;;;8.81;;
36833;SDS011;48003;52.084;5.224;2022-08-21T02:13:54;13.5;;;8.81;;
36833;SDS011;48003;52.084;5.224;2022-08-21T02:17:07;13.7;;;8.6;;
36833;SDS011;48003;52.084;5.224;2022-08-21T02:18:43;9.71;;;8.1;;
36833;SDS011;48003;52.084;5.224;2022-08-21T02:20:21;14.1;;;8.9;;
36833;SDS011;48003;52.084;5.224;2022-08-21T02:23:40;13.2;;;8.4;;
36833;SDS011;48003;52.084;5.224;2022-08-21T02:25:16;12.0;;;8.5;;
36833;SDS011;48003;52.084;5.224;2022-08-21T02:26:54;12.0;;;8.5;;
36833;SDS011;48003;52.084;5.224;2022-08-21T02:28:30;11.8;;;9.0;;
36833;SDS011;48003;52.084;5.224;2022-08-21T02:31:47;12.7;;;8.5;;
36833;SDS011;48003;52.084;5.224;2022-08-21T02:33:23;13.4;;;8.81;;
36833;SDS011;48003;52.084;5.224;2022-08-21T02:35:02;13.1;;;8.1;;
36833;SDS011;48003;52.084;5.224;2022-08-21T02:38:17;11.4;;;8.6;;
36833;SDS011;48003;52.084;5.224;2022-08-21T02:39:59;11.1;;;8.2;;
36833;SDS011;48003;52.084;5.224;2022-08-21T02:41:36;11.2;;;8.31;;
36833;SDS011;48003;52.084;5.224;2022-08-21T02:43:13;12.4;;;8.2;;
36833;SDS011;48003;52.084;5.224;2022-08-21T02:46:28;10.1;;;8.0;;
36833;SDS011;48003;52.084;5.224;2022-08-21T02:48:04;11.1;;;8.5;;
36833;SDS011;48003;52.084;5.224;2022-08-21T02:49:44;13.3;;;8.2;;
36833;SDS011;48003;52.084;5.224;2022-08-21T02:52:59;11.8;;;8.71;;
36833;SDS011;48003;52.084;5.224;2022-08-21T02:54:36;13.0;;;8.71;;
36833;SDS011;48003;52.084;5.224;2022-08-21T02:56:14;12.8;;;8.81;;
36833;SDS011;48003;52.084;5.224;2022-08-21T02:57:55;12.0;;;8.4;;
36833;SDS011;48003;52.084;5.224;2022-08-21T03:01:10;10.4;;;8.1;;
36833;SDS011;48003;52.084;5.224;2022-08-21T03:02:48;12.4;;;8.0;;
36833;SDS011;48003;52.084;5.224;2022-08-21T03:04:26;13.3;;;8.4;;
36833;SDS011;48003;52.084;5.224;2022-08-21T03:07:41;12.8;;;9.21;;
36833;SDS011;48003;52.084;5.224;2022-08-21T03:09:19;15.2;;;9.21;;
36833;SDS011;48003;52.084;5.224;2022-08-21T03:10:55;14.4;;;9.1;;
36833;SDS011;48003;52.084;5.224;2022-08-21T03:12:32;14.3;;;9.0;;
36833;SDS011;48003;52.084;5.224;2022-08-21T03:15:46;14.5;;;8.81;;
36833;SDS011;48003;52.084;5.224;2022-08-21T03:17:23;13.2;;;9.0;;
36833;SDS011;48003;52.084;5.224;2022-08-21T03:19:00;14.0;;;9.21;;
36833;SDS011;48003;52.084;5.224;2022-08-21T03:22:17;12.1;;;8.81;;
36833;SDS011;48003;52.084;5.224;2022-08-21T03:23:54;13.7;;;8.81;;
36833;SDS011;48003;52.084;5.224;2022-08-21T03:25:32;11.4;;;8.2;;
36833;SDS011;48003;52.084;5.224;2022-08-21T03:27:12;11.0;;;8.31;;
36833;SDS011;48003;52.084;5.224;2022-08-21T03:30:27;10.7;;;8.4;;
36833;SDS011;48003;52.084;5.224;2022-08-21T03:32:04;12.7;;;8.81;;
36833;SDS011;48003;52.084;5.224;2022-08-21T03:33:41;10.8;;;8.1;;
36833;SDS011;48003;52.084;5.224;2022-08-21T03:36:56;14.1;;;9.1;;
36833;SDS011;48003;52.084;5.224;2022-08-21T03:38:33;13.3;;;9.4;;
36833;SDS011;48003;52.084;5.224;2022-08-21T03:40:12;10.4;;;8.71;;
36833;SDS011;48003;52.084;5.224;2022-08-21T03:41:52;13.5;;;8.71;;
36833;SDS011;48003;52.084;5.224;2022-08-21T03:45:07;12.5;;;8.0;;
36833;SDS011;48003;52.084;5.224;2022-08-21T03:46:45;12.7;;;7.7;;
36833;SDS011;48003;52.084;5.224;2022-08-21T03:48:22;11.4;;;8.0;;
36833;SDS011;48003;52.084;5.224;2022-08-21T03:51:37;12.2;;;8.4;;
36833;SDS011;48003;52.084;5.224;2022-08-21T03:53:14;13.1;;;8.81;;
36833;SDS011;48003;52.084;5.224;2022-08-21T03:54:52;13.3;;;9.4;;
36833;SDS011;48003;52.084;5.224;2022-08-21T03:56:29;15.1;;;9.1;;
36833;SDS011;48003;52.084;5.224;2022-08-21T03:59:43;14.4;;;10.0;;
36833;SDS011;48003;52.084;5.224;2022-08-21T04:01:20;12.4;;;9.4;;
36833;SDS011;48003;52.084;5.224;2022-08-21T04:02:56;13.9;;;9.5;;
36833;SDS011;48003;52.084;5.224;2022-08-21T04:06:10;13.1;;;9.0;;
36833;SDS011;48003;52.084;5.224;2022-08-21T04:07:47;15.9;;;9.71;;
36833;SDS011;48003;52.084;5.224;2022-08-21T04:09:24;11.8;;;8.6;;
36833;SDS011;48003;52.084;5.224;2022-08-21T04:11:02;16.61;;;9.1;;
36833;SDS011;48003;52.084;5.224;2022-08-21T04:14:15;14.0;;;9.0;;
36833;SDS011;48003;52.084;5.224;2022-08-21T04:15:53;13.4;;;9.9;;
36833;SDS011;48003;52.084;5.224;2022-08-21T04:17:30;12.5;;;9.1;;
36833;SDS011;48003;52.084;5.224;2022-08-21T04:20:44;14.5;;;9.1;;
36833;SDS011;48003;52.084;5.224;2022-08-21T04:22:24;14.5;;;9.1;;
36833;SDS011;48003;52.084;5.224;2022-08-21T04:24:00;15.4;;;9.71;;
36833;SDS011;48003;52.084;5.224;2022-08-21T04:25:36;14.3;;;9.81;;
36833;SDS011;48003;52.084;5.224;2022-08-21T04:28:49;15.4;;;10.1;;
36833;SDS011;48003;52.084;5.224;2022-08-21T04:30:26;15.2;;;10.1;;
36833;SDS011;48003;52.084;5.224;2022-08-21T04:32:03;14.9;;;10.1;;
36833;SDS011;48003;52.084;5.224;2022-08-21T04:35:17;16.3;;;10.7;;
36833;SDS011;48003;52.084;5.224;2022-08-21T04:36:56;15.4;;;10.3;;
36833;SDS011;48003;52.084;5.224;2022-08-21T04:38:32;15.9;;;10.5;;
36833;SDS011;48003;52.084;5.224;2022-08-21T04:41:49;15.6;;;10.3;;
36833;SDS011;48003;52.084;5.224;2022-08-21T04:43:25;14.3;;;10.4;;
36833;SDS011;48003;52.084;5.224;2022-08-21T04:45:01;15.7;;;10.8;;
36833;SDS011;48003;52.084;5.224;2022-08-21T04:46:38;15.2;;;10.21;;
36833;SDS011;48003;52.084;5.224;2022-08-21T04:49:56;16.9;;;10.8;;
36833;SDS011;48003;52.084;5.224;2022-08-21T04:51:33;15.0;;;10.0;;
36833;SDS011;48003;52.084;5.224;2022-08-21T04:53:13;15.3;;;10.5;;
36833;SDS011;48003;52.084;5.224;2022-08-21T04:54:54;16.0;;;10.4;;
36833;SDS011;48003;52.084;5.224;2022-08-21T04:58:18;18.3;;;10.8;;
36833;SDS011;48003;52.084;5.224;2022-08-21T04:59:56;15.6;;;10.7;;
36833;SDS011;48003;52.084;5.224;2022-08-21T05:01:34;15.7;;;10.7;;
36833;SDS011;48003;52.084;5.224;2022-08-21T05:04:53;19.0;;;10.4;;
36833;SDS011;48003;52.084;5.224;2022-08-21T05:06:33;15.3;;;11.1;;
36833;SDS011;48003;52.084;5.224;2022-08-21T05:08:13;14.8;;;10.0;;
36833;SDS011;48003;52.084;5.224;2022-08-21T05:09:55;12.9;;;10.0;;
36833;SDS011;48003;52.084;5.224;2022-08-21T05:13:10;16.9;;;10.9;;
36833;SDS011;48003;52.084;5.224;2022-08-21T05:14:48;16.11;;;10.1;;
36833;SDS011;48003;52.084;5.224;2022-08-21T05:16:26;14.0;;;9.9;;
36833;SDS011;48003;52.084;5.224;2022-08-21T05:18:03;15.1;;;9.81;;
36833;SDS011;48003;52.084;5.224;2022-08-21T05:21:17;16.5;;;10.21;;
36833;SDS011;48003;52.084;5.224;2022-08-21T05:22:53;16.0;;;11.3;;
36833;SDS011;48003;52.084;5.224;2022-08-21T05:24:30;17.2;;;10.5;;
36833;SDS011;48003;52.084;5.224;2022-08-21T05:27:43;15.8;;;10.9;;
36833;SDS011;48003;52.084;5.224;2022-08-21T05:29:20;16.2;;;11.0;;
36833;SDS011;48003;52.084;5.224;2022-08-21T05:30:57;16.2;;;11.0;;
36833;SDS011;48003;52.084;5.224;2022-08-21T05:32:35;17.3;;;10.3;;
36833;SDS011;48003;52.084;5.224;2022-08-21T05:35:49;14.5;;;10.6;;
36833;SDS011;48003;52.084;5.224;2022-08-21T05:37:27;18.11;;;10.5;;
36833;SDS011;48003;52.084;5.224;2022-08-21T05:39:03;14.6;;;11.0;;
36833;SDS011;48003;52.084;5.224;2022-08-21T05:42:17;14.7;;;9.9;;
36833;SDS011;48003;52.084;5.224;2022-08-21T05:43:53;15.1;;;10.0;;
36833;SDS011;48003;52.084;5.224;2022-08-21T05:45:31;16.4;;;10.3;;
36833;SDS011;48003;52.084;5.224;2022-08-21T05:47:09;19.41;;;10.8;;
36833;SDS011;48003;52.084;5.224;2022-08-21T05:50:23;17.11;;;10.8;;
36833;SDS011;48003;52.084;5.224;2022-08-21T05:52:00;15.5;;;10.5;;
36833;SDS011;48003;52.084;5.224;2022-08-21T05:53:37;14.7;;;10.3;;
36833;SDS011;48003;52.084;5.224;2022-08-21T05:56:51;15.8;;;9.71;;
36833;SDS011;48003;52.084;5.224;2022-08-21T05:58:27;20.0;;;10.4;;
36833;SDS011;48003;52.084;5.224;2022-08-21T06:00:04;15.6;;;10.1;;
36833;SDS011;48003;52.084;5.224;2022-08-21T06:03:20;15.1;;;9.0;;
36833;SDS011;48003;52.084;5.224;2022-08-21T06:05:00;18.8;;;9.9;;
36833;SDS011;48003;52.084;5.224;2022-08-21T06:06:37;16.9;;;9.71;;
36833;SDS011;48003;52.084;5.224;2022-08-21T06:08:13;19.0;;;10.21;;
36833;SDS011;48003;52.084;5.224;2022-08-21T06:11:27;17.3;;;10.6;;
36833;SDS011;48003;52.084;5.224;2022-08-21T06:13:04;17.0;;;9.81;;
36833;SDS011;48003;52.084;5.224;2022-08-21T06:14:41;17.41;;;9.71;;
36833;SDS011;48003;52.084;5.224;2022-08-21T06:17:55;16.0;;;9.9;;
36833;SDS011;48003;52.084;5.224;2022-08-21T06:19:32;17.61;;;9.6;;
36833;SDS011;48003;52.084;5.224;2022-08-21T06:21:09;14.4;;;9.4;;
36833;SDS011;48003;52.084;5.224;2022-08-21T06:22:46;21.3;;;11.5;;
36833;SDS011;48003;52.084;5.224;2022-08-21T06:25:59;17.7;;;9.4;;
36833;SDS011;48003;52.084;5.224;2022-08-21T06:27:37;14.9;;;9.21;;
36833;SDS011;48003;52.084;5.224;2022-08-21T06:29:16;15.2;;;8.5;;
36833;SDS011;48003;52.084;5.224;2022-08-21T06:32:30;16.7;;;9.21;;
36833;SDS011;48003;52.084;5.224;2022-08-21T06:34:07;14.4;;;8.6;;
36833;SDS011;48003;52.084;5.224;2022-08-21T06:35:45;14.4;;;8.5;;
36833;SDS011;48003;52.084;5.224;2022-08-21T06:37:22;17.61;;;8.81;;
36833;SDS011;48003;52.084;5.224;2022-08-21T06:40:34;15.5;;;8.4;;
36833;SDS011;48003;52.084;5.224;2022-08-21T06:42:13;18.8;;;8.9;;
36833;SDS011;48003;52.084;5.224;2022-08-21T06:43:51;17.0;;;8.71;;
36833;SDS011;48003;52.084;5.224;2022-08-21T06:47:04;18.2;;;9.21;;
36833;SDS011;48003;52.084;5.224;2022-08-21T06:48:41;15.6;;;8.2;;
36833;SDS011;48003;52.084;5.224;2022-08-21T06:50:17;19.5;;;7.9;;
36833;SDS011;48003;52.084;5.224;2022-08-21T06:53:32;14.3;;;6.9;;
36833;SDS011;48003;52.084;5.224;2022-08-21T06:55:10;18.0;;;7.7;;
36833;SDS011;48003;52.084;5.224;2022-08-21T06:56:49;19.41;;;8.0;;
36833;SDS011;48003;52.084;5.224;2022-08-21T06:58:26;21.6;;;8.71;;
36833;SDS011;48003;52.084;5.224;2022-08-21T07:01:44;17.7;;;7.8;;
36833;SDS011;48003;52.084;5.224;2022-08-21T07:03:22;15.5;;;7.7;;
36833;SDS011;48003;52.084;5.224;2022-08-21T07:05:01;18.7;;;8.6;;
36833;SDS011;48003;52.084;5.224;2022-08-21T07:06:38;16.61;;;7.4;;
36833;SDS011;48003;52.084;5.224;2022-08-21T07:09:52;16.61;;;7.4;;
36833;SDS011;48003;52.084;5.224;2022-08-21T07:11:29;18.3;;;7.8;;
36833;SDS011;48003;52.084;5.224;2022-08-21T07:13:05;18.2;;;8.6;;
36833;SDS011;48003;52.084;5.224;2022-08-21T07:16:19;17.8;;;7.3;;
36833;SDS011;48003;52.084;5.224;2022-08-21T07:17:57;17.11;;;7.7;;
36833;SDS011;48003;52.084;5.224;2022-08-21T07:19:34;16.3;;;6.7;;
36833;SDS011;48003;52.084;5.224;2022-08-21T07:22:47;18.5;;;7.4;;
36833;SDS011;48003;52.084;5.224;2022-08-21T07:24:23;17.91;;;7.7;;
36833;SDS011;48003;52.084;5.224;2022-08-21T07:26:00;17.5;;;7.4;;
36833;SDS011;48003;52.084;5.224;2022-08-21T07:27:37;18.91;;;7.2;;
36833;SDS011;48003;52.084;5.224;2022-08-21T07:30:50;19.91;;;7.3;;
36833;SDS011;48003;52.084;5.224;2022-08-21T07:32:29;19.0;;;7.5;;
36833;SDS011;48003;52.084;5.224;2022-08-21T07:34:08;18.0;;;7.1;;
36833;SDS011;48003;52.084;5.224;2022-08-21T07:37:21;16.3;;;6.8;;
36833;SDS011;48003;52.084;5.224;2022-08-21T07:38:58;19.61;;;7.6;;
36833;SDS011;48003;52.084;5.224;2022-08-21T07:40:35;20.41;;;7.2;;
36833;SDS011;48003;52.084;5.224;2022-08-21T07:43:48;20.41;;;7.2;;
36833;SDS011;48003;52.084;5.224;2022-08-21T07:45:26;19.7;;;7.0;;
36833;SDS011;48003;52.084;5.224;2022-08-21T07:47:03;18.41;;;7.0;;
36833;SDS011;48003;52.084;5.224;2022-08-21T07:48:40;20.7;;;7.1;;
36833;SDS011;48003;52.084;5.224;2022-08-21T07:51:54;14.8;;;6.2;;
36833;SDS011;48003;52.084;5.224;2022-08-21T07:53:31;17.2;;;7.0;;
36833;SDS011;48003;52.084;5.224;2022-08-21T07:55:08;18.41;;;7.6;;
36833;SDS011;48003;52.084;5.224;2022-08-21T07:58:23;15.0;;;6.9;;
36833;SDS011;48003;52.084;5.224;2022-08-21T08:00:00;18.41;;;7.0;;
36833;SDS011;48003;52.084;5.224;2022-08-21T08:01:36;14.7;;;6.1;;
36833;SDS011;48003;52.084;5.224;2022-08-21T08:03:13;19.5;;;6.6;;
36833;SDS011;48003;52.084;5.224;2022-08-21T08:06:27;15.4;;;6.0;;
36833;SDS011;48003;52.084;5.224;2022-08-21T08:08:04;25.2;;;7.4;;
36833;SDS011;48003;52.084;5.224;2022-08-21T08:09:41;17.2;;;6.6;;
36833;SDS011;48003;52.084;5.224;2022-08-21T08:12:55;18.61;;;6.9;;
36833;SDS011;48003;52.084;5.224;2022-08-21T08:14:32;16.8;;;6.6;;
36833;SDS011;48003;52.084;5.224;2022-08-21T08:16:09;16.4;;;6.1;;
36833;SDS011;48003;52.084;5.224;2022-08-21T08:17:46;18.5;;;6.2;;
36833;SDS011;48003;52.084;5.224;2022-08-21T08:21:01;18.61;;;6.3;;
36833;SDS011;48003;52.084;5.224;2022-08-21T08:22:39;19.7;;;7.2;;
36833;SDS011;48003;52.084;5.224;2022-08-21T08:24:16;20.41;;;6.7;;
36833;SDS011;48003;52.084;5.224;2022-08-21T08:27:30;15.0;;;6.5;;
36833;SDS011;48003;52.084;5.224;2022-08-21T08:29:08;15.0;;;6.5;;
36833;SDS011;48003;52.084;5.224;2022-08-21T08:30:44;13.6;;;5.8;;
36833;SDS011;48003;52.084;5.224;2022-08-21T08:33:59;16.9;;;6.7;;
36833;SDS011;48003;52.084;5.224;2022-08-21T08:35:36;17.91;;;6.6;;
36833;SDS011;48003;52.084;5.224;2022-08-21T08:37:12;16.5;;;6.0;;
36833;SDS011;48003;52.084;5.224;2022-08-21T08:38:49;14.6;;;6.0;;
36833;SDS011;48003;52.084;5.224;2022-08-21T08:42:21;16.9;;;6.1;;
36833;SDS011;48003;52.084;5.224;2022-08-21T08:44:07;19.8;;;6.2;;
36833;SDS011;48003;52.084;5.224;2022-08-21T08:45:46;16.8;;;6.2;;
36833;SDS011;48003;52.084;5.224;2022-08-21T08:47:27;17.91;;;5.8;;
36833;SDS011;48003;52.084;5.224;2022-08-21T08:50:50;15.8;;;6.0;;
36833;SDS011;48003;52.084;5.224;2022-08-21T08:52:33;15.9;;;5.8;;
36833;SDS011;48003;52.084;5.224;2022-08-21T08:54:15;15.3;;;5.7;;
36833;SDS011;48003;52.084;5.224;2022-08-21T08:55:58;14.7;;;5.11;;
36833;SDS011;48003;52.084;5.224;2022-08-21T08:57:37;18.61;;;6.0;;
36833;SDS011;48003;52.084;5.224;2022-08-21T09:01:05;14.8;;;5.4;;
36833;SDS011;48003;52.084;5.224;2022-08-21T09:02:52;15.1;;;5.7;;
36833;SDS011;48003;52.084;5.224;2022-08-21T09:04:31;16.61;;;5.2;;
36833;SDS011;48003;52.084;5.224;2022-08-21T09:06:11;15.5;;;5.3;;
36833;SDS011;48003;52.084;5.224;2022-08-21T09:08:15;15.0;;;5.3;;
36833;SDS011;48003;52.084;5.224;2022-08-21T09:10:11;15.8;;;5.11;;
36833;SDS011;48003;52.084;5.224;2022-08-21T09:13:43;15.6;;;4.91;;
36833;SDS011;48003;52.084;5.224;2022-08-21T09:15:29;14.1;;;5.6;;
36833;SDS011;48003;52.084;5.224;2022-08-21T09:19:18;14.9;;;4.7;;
36833;SDS011;48003;52.084;5.224;2022-08-21T09:21:15;12.6;;;4.5;;
36833;SDS011;48003;52.084;5.224;2022-08-21T09:23:04;15.5;;;4.41;;
36833;SDS011;48003;52.084;5.224;2022-08-21T09:24:59;12.5;;;4.41;;
36833;SDS011;48003;52.084;5.224;2022-08-21T09:28:33;14.9;;;4.7;;
36833;SDS011;48003;52.084;5.224;2022-08-21T09:30:12;13.2;;;4.3;;
36833;SDS011;48003;52.084;5.224;2022-08-21T09:31:49;15.2;;;4.7;;
36833;SDS011;48003;52.084;5.224;2022-08-21T09:33:26;13.8;;;4.0;;
36833;SDS011;48003;52.084;5.224;2022-08-21T09:36:47;16.2;;;4.0;;
36833;SDS011;48003;52.084;5.224;2022-08-21T09:38:27;15.7;;;4.1;;
36833;SDS011;48003;52.084;5.224;2022-08-21T09:40:15;12.3;;;4.3;;
36833;SDS011;48003;52.084;5.224;2022-08-21T09:42:06;14.8;;;4.2;;
36833;SDS011;48003;52.084;5.224;2022-08-21T09:43:51;11.6;;;3.7;;
36833;SDS011;48003;52.084;5.224;2022-08-21T09:47:08;11.0;;;3.4;;
36833;SDS011;48003;52.084;5.224;2022-08-21T09:48:47;12.9;;;3.9;;
36833;SDS011;48003;52.084;5.224;2022-08-21T09:50:26;14.0;;;3.8;;
36833;SDS011;48003;52.084;5.224;2022-08-21T09:52:06;11.4;;;3.5;;
36833;SDS011;48003;52.084;5.224;2022-08-21T09:58:46;14.1;;;3.3;;
36833;SDS011;48003;52.084;5.224;2022-08-21T10:00:26;11.4;;;3.2;;
36833;SDS011;48003;52.084;5.224;2022-08-21T10:04:03;15.1;;;3.7;;
36833;SDS011;48003;52.084;5.224;2022-08-21T10:05:51;14.3;;;3.5;;
36833;SDS011;48003;52.084;5.224;2022-08-21T10:07:31;12.2;;;3.3;;
36833;SDS011;48003;52.084;5.224;2022-08-21T10:09:13;11.2;;;3.0;;
36833;SDS011;48003;52.084;5.224;2022-08-21T10:11:01;11.8;;;3.7;;
36833;SDS011;48003;52.084;5.224;2022-08-21T10:14:35;9.71;;;3.1;;
36833;SDS011;48003;52.084;5.224;2022-08-21T10:16:36;11.3;;;3.0;;
36833;SDS011;48003;52.084;5.224;2022-08-21T10:18:30;10.1;;;2.8;;
36833;SDS011;48003;52.084;5.224;2022-08-21T10:20:17;11.9;;;2.8;;
36833;SDS011;48003;52.084;5.224;2022-08-21T10:22:01;13.4;;;3.0;;
36833;SDS011;48003;52.084;5.224;2022-08-21T10:23:51;10.9;;;2.8;;
36833;SDS011;48003;52.084;5.224;2022-08-21T10:25:37;13.2;;;2.8;;
36833;SDS011;48003;52.084;5.224;2022-08-21T10:29:16;12.4;;;2.8;;
36833;SDS011;48003;52.084;5.224;2022-08-21T10:31:18;9.9;;;2.6;;
36833;SDS011;48003;52.084;5.224;2022-08-21T10:33:13;10.7;;;2.7;;
36833;SDS011;48003;52.084;5.224;2022-08-21T10:35:00;10.8;;;2.7;;
36833;SDS011;48003;52.084;5.224;2022-08-21T10:36:50;8.4;;;2.31;;
36833;SDS011;48003;52.084;5.224;2022-08-21T10:38:53;11.3;;;3.3;;
36833;SDS011;48003;52.084;5.224;2022-08-21T10:40:34;10.21;;;2.5;;
36833;SDS011;48003;52.084;5.224;2022-08-21T10:42:23;8.5;;;2.1;;
36833;SDS011;48003;52.084;5.224;2022-08-21T10:46:00;7.3;;;2.5;;
36833;SDS011;48003;52.084;5.224;2022-08-21T10:47:54;9.4;;;2.4;;
36833;SDS011;48003;52.084;5.224;2022-08-21T10:49:38;9.6;;;2.6;;
36833;SDS011;48003;52.084;5.224;2022-08-21T10:51:23;7.3;;;2.4;;
36833;SDS011;48003;52.084;5.224;2022-08-21T10:53:16;10.21;;;2.6;;
36833;SDS011;48003;52.084;5.224;2022-08-21T10:55:06;9.21;;;2.4;;
36833;SDS011;48003;52.084;5.224;2022-08-21T10:56:49;11.0;;;2.6;;
36833;SDS011;48003;52.084;5.224;2022-08-21T11:00:18;10.0;;;3.5;;
36833;SDS011;48003;52.084;5.224;2022-08-21T11:01:59;9.9;;;2.31;;
36833;SDS011;48003;52.084;5.224;2022-08-21T11:03:44;8.31;;;2.1;;
36833;SDS011;48003;52.084;5.224;2022-08-21T11:05:28;9.81;;;2.1;;
36833;SDS011;48003;52.084;5.224;2022-08-21T11:08:58;7.4;;;2.31;;
36833;SDS011;48003;52.084;5.224;2022-08-21T11:10:47;9.5;;;2.31;;
36833;SDS011;48003;52.084;5.224;2022-08-21T11:12:31;7.8;;;2.1;;
36833;SDS011;48003;52.084;5.224;2022-08-21T11:14:20;8.71;;;2.8;;
36833;SDS011;48003;52.084;5.224;2022-08-21T11:16:09;8.1;;;2.1;;
36833;SDS011;48003;52.084;5.224;2022-08-21T11:17:58;9.6;;;2.1;;
36833;SDS011;48003;52.084;5.224;2022-08-21T11:19:57;8.71;;;2.5;;
36833;SDS011;48003;52.084;5.224;2022-08-21T11:23:33;7.8;;;2.1;;
36833;SDS011;48003;52.084;5.224;2022-08-21T11:25:20;9.5;;;2.9;;
36833;SDS011;48003;52.084;5.224;2022-08-21T11:27:04;6.9;;;2.1;;
36833;SDS011;48003;52.084;5.224;2022-08-21T11:28:55;8.2;;;2.8;;
36833;SDS011;48003;52.084;5.224;2022-08-21T11:30:43;7.0;;;2.21;;
36833;SDS011;48003;52.084;5.224;2022-08-21T11:32:46;9.9;;;1.9;;
36833;SDS011;48003;52.084;5.224;2022-08-21T11:34:45;8.2;;;2.5;;
36833;SDS011;48003;52.084;5.224;2022-08-21T11:36:33;6.9;;;2.31;;
36833;SDS011;48003;52.084;5.224;2022-08-21T11:40:11;8.71;;;2.5;;
36833;SDS011;48003;52.084;5.224;2022-08-21T11:42:02;6.2;;;2.1;;
36833;SDS011;48003;52.084;5.224;2022-08-21T11:43:50;11.7;;;2.7;;
36833;SDS011;48003;52.084;5.224;2022-08-21T11:45:37;9.31;;;2.4;;
36833;SDS011;48003;52.084;5.224;2022-08-21T11:47:29;6.8;;;2.6;;
36833;SDS011;48003;52.084;5.224;2022-08-21T11:49:31;7.1;;;2.21;;
36833;SDS011;48003;52.084;5.224;2022-08-21T11:51:25;9.0;;;2.31;;
36833;SDS011;48003;52.084;5.224;2022-08-21T11:53:17;11.6;;;2.8;;
36833;SDS011;48003;52.084;5.224;2022-08-21T11:56:52;7.0;;;2.21;;
36833;SDS011;48003;52.084;5.224;2022-08-21T11:58:35;7.5;;;2.31;;
36833;SDS011;48003;52.084;5.224;2022-08-21T12:00:16;8.6;;;2.21;;
36833;SDS011;48003;52.084;5.224;2022-08-21T12:01:59;9.0;;;2.31;;
36833;SDS011;48003;52.084;5.224;2022-08-21T12:05:23;9.0;;;2.21;;
36833;SDS011;48003;52.084;5.224;2022-08-21T12:07:11;7.8;;;2.1;;
36833;SDS011;48003;52.084;5.224;2022-08-21T12:08:56;8.6;;;2.0;;
36833;SDS011;48003;52.084;5.224;2022-08-21T12:10:36;10.4;;;4.5;;
36833;SDS011;48003;52.084;5.224;2022-08-21T12:15:52;8.6;;;2.4;;
36833;SDS011;48003;52.084;5.224;2022-08-21T12:17:34;7.1;;;1.9;;
36833;SDS011;48003;52.084;5.224;2022-08-21T12:19:27;7.5;;;2.0;;
36833;SDS011;48003;52.084;5.224;2022-08-21T12:21:23;7.1;;;1.6;;
36833;SDS011;48003;52.084;5.224;2022-08-21T12:23:04;10.21;;;2.0;;
36833;SDS011;48003;52.084;5.224;2022-08-21T12:25:04;9.1;;;2.31;;
36833;SDS011;48003;52.084;5.224;2022-08-21T12:26:48;11.2;;;2.6;;
36833;SDS011;48003;52.084;5.224;2022-08-21T12:30:19;7.9;;;1.8;;
36833;SDS011;48003;52.084;5.224;2022-08-21T12:32:20;7.2;;;1.9;;
36833;SDS011;48003;52.084;5.224;2022-08-21T12:34:02;7.9;;;2.1;;
36833;SDS011;48003;52.084;5.224;2022-08-21T12:35:46;9.4;;;2.1;;
36833;SDS011;48003;52.084;5.224;2022-08-21T12:37:26;5.8;;;2.1;;
36833;SDS011;48003;52.084;5.224;2022-08-21T12:39:22;9.0;;;2.21;;
36833;SDS011;48003;52.084;5.224;2022-08-21T12:42:50;8.1;;;2.1;;
36833;SDS011;48003;52.084;5.224;2022-08-21T12:44:33;7.0;;;2.21;;
36833;SDS011;48003;52.084;5.224;2022-08-21T12:46:15;8.31;;;2.1;;
36833;SDS011;48003;52.084;5.224;2022-08-21T12:47:56;8.9;;;2.4;;
36833;SDS011;48003;52.084;5.224;2022-08-21T12:51:28;8.71;;;2.5;;
36833;SDS011;48003;52.084;5.224;2022-08-21T12:53:12;7.0;;;1.9;;
36833;SDS011;48003;52.084;5.224;2022-08-21T12:55:00;8.0;;;2.5;;